Time;durP1;ratioP1;P1;durP2;ratioP2;P2;SDS_P1;SDS_P2;PMS_P1;PMS_P2;Temp;Humidity;BMP_temperature;BMP_pressure;BME280_temperature;BME280_humidity;BME280_pressure;Samples;Min_cycle;Max_cycle;Signal;HPM_P1;HPM_P2
2023/09/09 16:09:16;;;;;;;;;10.75;10.75;;;;;;;;6394316;38;52121;-57
2023/09/09 16:15:20;;;;;;;;;8.75;8.75;;;;;;;;6500874;46;8867;-56
2023/09/09 16:21:22;;;;;;;;;13.00;11.25;;;;;;;;6503180;38;9602;-57
2023/09/09 16:27:25;;;;;;;;;8.50;8.25;;;;;;;;6501921;38;9440;-57
2023/09/09 16:33:30;;;;;;;;;13.00;13.00;;;;;;;;6502889;38;8871;-57
2023/09/09 16:39:34;;;;;;;;;12.00;12.00;;;;;;;;6502357;46;8827;-58
2023/09/09 16:45:37;;;;;;;;;17.00;14.75;;;;;;;;6501628;31;9038;-57
2023/09/09 16:51:39;;;;;;;;;21.75;20.25;;;;;;;;6503127;38;8827;-57
2023/09/09 16:57:41;;;;;;;;;17.25;15.50;;;;;;;;6501708;38;9031;-57
2023/09/09 17:03:44;;;;;;;;;13.00;13.00;;;;;;;;6501617;38;9527;-55
2023/09/09 17:09:47;;;;;;;;;14.50;14.50;;;;;;;;6502571;38;8875;-58
2023/09/09 17:15:49;;;;;;;;;16.50;13.50;;;;;;;;6499309;39;8958;-58
2023/09/09 17:21:53;;;;;;;;;15.00;15.00;;;;;;;;6493931;46;8909;-57
2023/09/09 17:27:56;;;;;;;;;14.50;14.50;;;;;;;;6493091;46;8887;-57
2023/09/09 17:33:58;;;;;;;;;12.75;12.75;;;;;;;;6492368;46;8880;-56
2023/09/09 17:40:01;;;;;;;;;12.75;12.00;;;;;;;;6492980;46;8848;-57
2023/09/09 17:46:03;;;;;;;;;17.25;16.25;;;;;;;;6492582;46;8904;-57
2023/09/09 17:52:07;;;;;;;;;18.50;17.50;;;;;;;;6493731;39;8800;-56
2023/09/09 17:58:12;;;;;;;;;18.50;16.50;;;;;;;;6492695;39;8904;-58
2023/09/09 18:04:17;;;;;;;;;17.00;17.00;;;;;;;;6493434;39;8935;-59
2023/09/09 18:10:19;;;;;;;;;19.67;19.00;;;;;;;;6492844;46;8938;-57
2023/09/09 18:16:25;;;;;;;;;21.75;20.50;;;;;;;;6492765;39;8928;-56
2023/09/09 18:22:29;;;;;;;;;20.75;20.75;;;;;;;;6493410;39;8832;-57
2023/09/09 18:28:32;;;;;;;;;24.67;23.33;;;;;;;;6491574;39;8997;-57
2023/09/09 18:34:37;;;;;;;;;21.00;20.33;;;;;;;;6493166;39;8785;-57
2023/09/09 18:40:39;;;;;;;;;25.00;23.67;;;;;;;;6492503;46;9025;-57
2023/09/09 18:46:42;;;;;;;;;20.33;19.33;;;;;;;;6491809;39;9557;-59
2023/09/09 18:52:46;;;;;;;;;18.33;18.00;;;;;;;;6492416;39;8814;-56
2023/09/09 18:58:50;;;;;;;;;22.00;20.67;;;;;;;;6492225;31;8917;-56
2023/09/09 19:04:53;;;;;;;;;21.00;21.00;;;;;;;;6491362;31;8960;-56
2023/09/09 19:10:56;;;;;;;;;19.33;18.67;;;;;;;;6492647;39;8848;-57
2023/09/09 19:16:59;;;;;;;;;22.33;21.00;;;;;;;;6492469;31;8938;-56
2023/09/09 19:23:03;;;;;;;;;19.33;19.33;;;;;;;;6492764;31;8879;-57
2023/09/09 19:29:08;;;;;;;;;21.00;20.00;;;;;;;;6492419;39;8854;-57
2023/09/09 19:35:10;;;;;;;;;19.33;18.33;;;;;;;;6490924;46;8879;-59
2023/09/09 19:41:14;;;;;;;;;22.33;21.00;;;;;;;;6493021;39;8953;-56
2023/09/09 19:47:16;;;;;;;;;21.33;19.33;;;;;;;;6491966;39;8896;-58
2023/09/09 19:53:18;;;;;;;;;22.67;22.00;;;;;;;;6492726;31;8893;-56
2023/09/09 19:59:22;;;;;;;;;19.67;17.00;;;;;;;;6492391;47;9001;-56
2023/09/09 20:05:24;;;;;;;;;15.33;15.33;;;;;;;;6492193;39;8907;-57
2023/09/09 20:11:26;;;;;;;;;14.33;14.33;;;;;;;;6491300;39;8907;-56
2023/09/09 20:17:29;;;;;;;;;16.67;15.67;;;;;;;;6492418;39;9801;-56
2023/09/09 20:23:32;;;;;;;;;16.00;14.00;;;;;;;;6491875;31;9815;-56
2023/09/09 20:29:34;;;;;;;;;12.00;11.67;;;;;;;;6492042;39;8840;-55
2023/09/09 20:35:39;;;;;;;;;12.00;10.50;;;;;;;;6491911;39;9630;-57
2023/09/09 20:41:48;;;;;;;;;14.33;11.00;;;;;;;;6491903;31;8867;-56
2023/09/09 20:47:54;;;;;;;;;12.00;8.67;;;;;;;;6491464;39;8966;-56
2023/09/09 20:53:57;;;;;;;;;11.33;11.00;;;;;;;;6492439;39;9667;-56
2023/09/09 20:59:59;;;;;;;;;10.00;10.00;;;;;;;;6493649;46;8797;-57
2023/09/09 21:06:02;;;;;;;;;7.33;6.00;;;;;;;;6492600;36;8935;-55
2023/09/09 21:12:04;;;;;;;;;11.50;10.25;;;;;;;;6492671;46;9020;-56
2023/09/09 21:18:07;;;;;;;;;13.00;13.00;;;;;;;;6493855;39;9525;-56
2023/09/09 21:24:11;;;;;;;;;13.00;10.33;;;;;;;;5221351;36;10002263;-57
2023/09/09 21:30:15;;;;;;;;;13.33;9.00;;;;;;;;6493334;31;8931;-56
2023/09/09 21:36:17;;;;;;;;;9.67;8.00;;;;;;;;6493491;46;8880;-56
2023/09/09 21:42:20;;;;;;;;;10.00;8.33;;;;;;;;6492617;31;8866;-56
2023/09/09 21:48:22;;;;;;;;;9.00;9.00;;;;;;;;6493762;39;8908;-57
2023/09/09 21:54:24;;;;;;;;;10.33;8.67;;;;;;;;6493066;46;8993;-55
2023/09/09 22:00:27;;;;;;;;;11.00;9.00;;;;;;;;6493807;39;8820;-56
2023/09/09 22:06:30;;;;;;;;;11.33;10.00;;;;;;;;6492765;31;8910;-56
2023/09/09 22:12:32;;;;;;;;;13.00;10.67;;;;;;;;6492566;39;8935;-57
2023/09/09 22:18:36;;;;;;;;;12.00;11.00;;;;;;;;6493661;39;9352;-58
2023/09/09 22:24:39;;;;;;;;;11.00;10.67;;;;;;;;6492690;31;9082;-55
2023/09/09 22:30:42;;;;;;;;;15.33;11.00;;;;;;;;6493265;46;8886;-57
2023/09/09 22:36:45;;;;;;;;;14.33;12.67;;;;;;;;6492040;39;8892;-56
2023/09/09 22:42:48;;;;;;;;;10.33;10.33;;;;;;;;6491438;39;8902;-55
2023/09/09 22:48:52;;;;;;;;;9.67;8.00;;;;;;;;6493617;31;8864;-58
2023/09/09 22:54:55;;;;;;;;;9.33;9.33;;;;;;;;6491828;46;8910;-56
2023/09/09 23:00:57;;;;;;;;;8.33;7.33;;;;;;;;6493145;39;8967;-56
2023/09/09 23:07:00;;;;;;;;;11.00;9.00;;;;;;;;6493012;39;8921;-57
2023/09/09 23:13:03;;;;;;;;;11.33;11.33;;;;;;;;6492098;46;8904;-56
2023/09/09 23:19:06;;;;;;;;;13.00;12.00;;;;;;;;6493074;39;9513;-55
2023/09/09 23:25:11;;;;;;;;;7.00;6.50;;;;;;;;6492167;39;9528;-56
2023/09/09 23:31:13;;;;;;;;;8.33;8.33;;;;;;;;6492596;46;8954;-56
2023/09/09 23:37:16;;;;;;;;;12.33;10.67;;;;;;;;6490864;39;8872;-56
2023/09/09 23:43:19;;;;;;;;;8.67;8.67;;;;;;;;6491826;46;8894;-54
2023/09/09 23:49:21;;;;;;;;;11.33;10.00;;;;;;;;6492993;39;9002;-57
2023/09/09 23:55:23;;;;;;;;;9.00;7.00;;;;;;;;6492706;39;8910;-56
